RJSS

Sendai Airport

Airport
ICAO code
RJSS
IATA Code
SDJ
Summary
ICAO Region
APAC
ICAO Territory
Location

Natori, Sendai Metropolis

Serving
Sendai
Elevation
6 ft
Coordinates
38° 8' 23" N , 140° 55' 1" E
KCC
Metar
Observation
RJSS 301100Z 32014KT 9999 FEW020 00/M03 Q1011
Station
Sendai Airport
Date/Time
2023-01-30 12:00:00
Wind direction
320°
Wind speed
14 kts
Lowest cloud amount
few clouds
Temperature
0°C
Dew point
-3°C
Humidity
80%
QNH
1011 hPa
Weather condition
n/a

Sendai Airport is an international airport located in the city of Natori, Miyagi, 13.6 km south southeast of Sendai metropolis, Sendai, Japan.

Climatology

Humid Sub-tropical climate (Köppen climate classification Cfa)

Runways

Designator Length Width Surface Rops
12/30 1201 46 ASP Yes/Yes
9/27 3000 46 ASP Yes/Yes

Airport map

Aerial View

SKYbrary Partners:

Safety knowledge contributed by: